sensor_id;sensor_type;location;lat;lon;timestamp;pressure;altitude;pressure_sealevel;temperature;humidity
9421;BME280;4749;51.398;5.466;2022-12-15T00:00:00;100497.72;;;-5.32;100.00
9421;BME280;4749;51.398;5.466;2022-12-15T00:02:46;100495.25;;;-5.30;100.00
9421;BME280;4749;51.398;5.466;2022-12-15T00:05:32;100490.13;;;-5.30;100.00
9421;BME280;4749;51.398;5.466;2022-12-15T00:08:18;100496.25;;;-5.28;100.00
9421;BME280;4749;51.398;5.466;2022-12-15T00:11:04;100492.03;;;-5.28;100.00
9421;BME280;4749;51.398;5.466;2022-12-15T00:13:50;100498.81;;;-5.28;100.00
9421;BME280;4749;51.398;5.466;2022-12-15T00:16:36;100509.16;;;-5.27;100.00
9421;BME280;4749;51.398;5.466;2022-12-15T00:19:22;100508.19;;;-5.29;100.00
9421;BME280;4749;51.398;5.466;2022-12-15T00:22:07;100496.94;;;-5.31;100.00
9421;BME280;4749;51.398;5.466;2022-12-15T00:24:53;100498.63;;;-5.31;100.00
9421;BME280;4749;51.398;5.466;2022-12-15T00:27:39;100495.97;;;-5.33;100.00
9421;BME280;4749;51.398;5.466;2022-12-15T00:30:25;100506.03;;;-5.36;100.00
9421;BME280;4749;51.398;5.466;2022-12-15T00:33:16;100511.16;;;-5.36;100.00
9421;BME280;4749;51.398;5.466;2022-12-15T00:36:01;100512.84;;;-5.36;100.00
9421;BME280;4749;51.398;5.466;2022-12-15T00:38:47;100517.97;;;-5.36;100.00
9421;BME280;4749;51.398;5.466;2022-12-15T00:41:16;100519.66;;;-5.37;100.00
9421;BME280;4749;51.398;5.466;2022-12-15T00:43:44;100508.41;;;-5.39;100.00
9421;BME280;4749;51.398;5.466;2022-12-15T00:46:12;100503.19;;;-5.41;100.00
9421;BME280;4749;51.398;5.466;2022-12-15T00:48:58;100506.47;;;-5.43;100.00
9421;BME280;4749;51.398;5.466;2022-12-15T00:51:26;100517.50;;;-5.44;100.00
9421;BME280;4749;51.398;5.466;2022-12-15T00:54:12;100516.63;;;-5.45;100.00
9421;BME280;4749;51.398;5.466;2022-12-15T00:56:58;100519.19;;;-5.45;100.00
9421;BME280;4749;51.398;5.466;2022-12-15T00:59:44;100516.53;;;-5.46;100.00
9421;BME280;4749;51.398;5.466;2022-12-15T01:02:30;100529.34;;;-5.46;100.00
9421;BME280;4749;51.398;5.466;2022-12-15T01:05:16;100521.66;;;-5.46;100.00
9421;BME280;4749;51.398;5.466;2022-12-15T01:08:02;100518.31;;;-5.45;100.00
9421;BME280;4749;51.398;5.466;2022-12-15T01:10:47;100518.31;;;-5.45;100.00
9421;BME280;4749;51.398;5.466;2022-12-15T01:13:33;100519.84;;;-5.47;100.00
9421;BME280;4749;51.398;5.466;2022-12-15T01:16:19;100527.53;;;-5.47;100.00
9421;BME280;4749;51.398;5.466;2022-12-15T01:19:07;100523.44;;;-5.45;100.00
9421;BME280;4749;51.398;5.466;2022-12-15T01:21:53;100520.16;;;-5.43;100.00
9421;BME280;4749;51.398;5.466;2022-12-15T01:24:20;100522.00;;;-5.40;100.00
9421;BME280;4749;51.398;5.466;2022-12-15T01:26:47;100516.22;;;-5.38;100.00
9421;BME280;4749;51.398;5.466;2022-12-15T01:29:18;100506.84;;;-5.37;100.00
9421;BME280;4749;51.398;5.466;2022-12-15T01:31:45;100517.19;;;-5.35;100.00
9421;BME280;4749;51.398;5.466;2022-12-15T01:34:17;100506.94;;;-5.35;100.00
9421;BME280;4749;51.398;5.466;2022-12-15T01:36:46;100515.69;;;-5.32;100.00
9421;BME280;4749;51.398;5.466;2022-12-15T01:39:13;100513.91;;;-5.33;100.00
9421;BME280;4749;51.398;5.466;2022-12-15T01:41:40;100518.16;;;-5.33;100.00
9421;BME280;4749;51.398;5.466;2022-12-15T01:44:23;100526.81;;;-5.31;100.00
9421;BME280;4749;51.398;5.466;2022-12-15T01:46:53;100520.81;;;-5.32;100.00
9421;BME280;4749;51.398;5.466;2022-12-15T01:49:26;100531.75;;;-5.34;100.00
9421;BME280;4749;51.398;5.466;2022-12-15T01:52:01;100533.44;;;-5.35;100.00
9421;BME280;4749;51.398;5.466;2022-12-15T01:57:13;100539.28;;;-5.38;100.00
9421;BME280;4749;51.398;5.466;2022-12-15T01:59:55;100534.03;;;-5.39;100.00
9421;BME280;4749;51.398;5.466;2022-12-15T02:02:45;100542.59;;;-5.39;100.00
9421;BME280;4749;51.398;5.466;2022-12-15T02:05:30;100535.81;;;-5.38;100.00
9421;BME280;4749;51.398;5.466;2022-12-15T02:07:59;100540.31;;;-5.34;100.00
9421;BME280;4749;51.398;5.466;2022-12-15T02:17:02;100548.56;;;-5.25;100.00
9421;BME280;4749;51.398;5.466;2022-12-15T02:20:24;100561.56;;;-5.22;100.00
9421;BME280;4749;51.398;5.466;2022-12-15T02:32:10;100575.16;;;-5.23;100.00
9421;BME280;4749;51.398;5.466;2022-12-15T02:34:53;100575.16;;;-5.23;100.00
9421;BME280;4749;51.398;5.466;2022-12-15T02:37:35;100568.28;;;-5.24;100.00
9421;BME280;4749;51.398;5.466;2022-12-15T02:40:07;100578.63;;;-5.22;100.00
9421;BME280;4749;51.398;5.466;2022-12-15T02:42:41;100584.75;;;-5.20;100.00
9421;BME280;4749;51.398;5.466;2022-12-15T02:45:17;100584.63;;;-5.22;100.00
9421;BME280;4749;51.398;5.466;2022-12-15T02:54:09;100572.53;;;-5.24;100.00
9421;BME280;4749;51.398;5.466;2022-12-15T03:00:04;100577.47;;;-5.27;100.00
9421;BME280;4749;51.398;5.466;2022-12-15T03:02:33;100574.69;;;-5.30;100.00
9421;BME280;4749;51.398;5.466;2022-12-15T03:05:04;100583.19;;;-5.31;100.00
9421;BME280;4749;51.398;5.466;2022-12-15T03:07:32;100583.09;;;-5.33;100.00
9421;BME280;4749;51.398;5.466;2022-12-15T03:10:04;100583.00;;;-5.34;100.00
9421;BME280;4749;51.398;5.466;2022-12-15T03:12:31;100578.59;;;-5.37;100.00
9421;BME280;4749;51.398;5.466;2022-12-15T03:14:59;100582.72;;;-5.39;100.00
9421;BME280;4749;51.398;5.466;2022-12-15T03:17:26;100585.78;;;-5.45;100.00
9421;BME280;4749;51.398;5.466;2022-12-15T03:19:53;100589.25;;;-5.44;100.00
9421;BME280;4749;51.398;5.466;2022-12-15T03:22:20;100585.78;;;-5.45;100.00
9421;BME280;4749;51.398;5.466;2022-12-15T03:24:48;100594.38;;;-5.44;100.00
9421;BME280;4749;51.398;5.466;2022-12-15T03:27:15;100593.56;;;-5.43;100.00
9421;BME280;4749;51.398;5.466;2022-12-15T03:29:42;100585.88;;;-5.43;100.00
9421;BME280;4749;51.398;5.466;2022-12-15T03:32:09;100600.47;;;-5.42;100.00
9421;BME280;4749;51.398;5.466;2022-12-15T03:34:36;100597.03;;;-5.43;100.00
9421;BME280;4749;51.398;5.466;2022-12-15T03:37:03;100601.34;;;-5.42;100.00
9421;BME280;4749;51.398;5.466;2022-12-15T03:39:30;100598.78;;;-5.42;100.00
9421;BME280;4749;51.398;5.466;2022-12-15T03:41:58;100589.34;;;-5.43;100.00
9421;BME280;4749;51.398;5.466;2022-12-15T03:44:25;100585.88;;;-5.43;100.00
9421;BME280;4749;51.398;5.466;2022-12-15T03:46:52;100585.97;;;-5.42;100.00
9421;BME280;4749;51.398;5.466;2022-12-15T03:49:22;100592.88;;;-5.41;100.00
9421;BME280;4749;51.398;5.466;2022-12-15T03:51:50;100593.75;;;-5.40;100.00
9421;BME280;4749;51.398;5.466;2022-12-15T03:54:18;100592.88;;;-5.41;100.00
9421;BME280;4749;51.398;5.466;2022-12-15T03:56:45;100592.97;;;-5.39;100.00
9421;BME280;4749;51.398;5.466;2022-12-15T03:59:12;100586.06;;;-5.40;100.00
9421;BME280;4749;51.398;5.466;2022-12-15T04:01:46;100591.19;;;-5.40;100.00
9421;BME280;4749;51.398;5.466;2022-12-15T04:04:15;100591.97;;;-5.41;100.00
9421;BME280;4749;51.398;5.466;2022-12-15T04:06:42;100583.50;;;-5.40;100.00
9421;BME280;4749;51.398;5.466;2022-12-15T04:09:09;100585.97;;;-5.42;100.00
9421;BME280;4749;51.398;5.466;2022-12-15T04:11:36;100570.50;;;-5.43;100.00
9421;BME280;4749;51.398;5.466;2022-12-15T04:14:03;100585.88;;;-5.43;100.00
9421;BME280;4749;51.398;5.466;2022-12-15T04:16:30;100590.03;;;-5.45;100.00
9421;BME280;4749;51.398;5.466;2022-12-15T04:18:58;100602.72;;;-5.47;100.00
9421;BME280;4749;51.398;5.466;2022-12-15T04:21:43;100597.50;;;-5.48;100.00
9421;BME280;4749;51.398;5.466;2022-12-15T04:24:10;100599.00;;;-5.52;100.00
9421;BME280;4749;51.398;5.466;2022-12-15T04:26:56;100591.25;;;-5.53;100.00
9421;BME280;4749;51.398;5.466;2022-12-15T04:29:42;100595.34;;;-5.55;100.00
9421;BME280;4749;51.398;5.466;2022-12-15T04:32:28;100613.19;;;-5.57;100.00
9421;BME280;4749;51.398;5.466;2022-12-15T04:35:16;100609.75;;;-5.57;100.00
9421;BME280;4749;51.398;5.466;2022-12-15T04:38:02;100610.53;;;-5.58;100.00
9421;BME280;4749;51.398;5.466;2022-12-15T04:40:47;100614.88;;;-5.57;100.00
9421;BME280;4749;51.398;5.466;2022-12-15T04:43:33;100615.75;;;-5.57;100.00
9421;BME280;4749;51.398;5.466;2022-12-15T04:46:19;100618.31;;;-5.57;100.00
9421;BME280;4749;51.398;5.466;2022-12-15T04:49:05;100611.50;;;-5.56;100.00
9421;BME280;4749;51.398;5.466;2022-12-15T04:51:51;100613.97;;;-5.58;100.00
9421;BME280;4749;51.398;5.466;2022-12-15T04:54:36;100609.66;;;-5.59;100.00
9421;BME280;4749;51.398;5.466;2022-12-15T04:57:22;100607.19;;;-5.57;100.00
9421;BME280;4749;51.398;5.466;2022-12-15T05:00:09;100605.50;;;-5.57;100.00
9421;BME280;4749;51.398;5.466;2022-12-15T05:02:55;100602.16;;;-5.56;100.00
9421;BME280;4749;51.398;5.466;2022-12-15T05:05:44;100600.38;;;-5.57;100.00
9421;BME280;4749;51.398;5.466;2022-12-15T05:08:30;100609.06;;;-5.55;100.00
9421;BME280;4749;51.398;5.466;2022-12-15T05:11:16;100603.84;;;-5.56;100.00
9421;BME280;4749;51.398;5.466;2022-12-15T05:14:03;100615.09;;;-5.54;100.00
9421;BME280;4749;51.398;5.466;2022-12-15T05:16:48;100619.31;;;-5.55;100.00
9421;BME280;4749;51.398;5.466;2022-12-15T05:19:35;100619.31;;;-5.55;100.00
9421;BME280;4749;51.398;5.466;2022-12-15T05:22:21;100616.75;;;-5.55;100.00
9421;BME280;4749;51.398;5.466;2022-12-15T05:25:07;100632.91;;;-5.56;100.00
9421;BME280;4749;51.398;5.466;2022-12-15T05:27:53;100632.72;;;-5.59;100.00
9421;BME280;4749;51.398;5.466;2022-12-15T05:30:40;100641.19;;;-5.60;100.00
9421;BME280;4749;51.398;5.466;2022-12-15T05:33:26;100641.88;;;-5.62;100.00
9421;BME280;4749;51.398;5.466;2022-12-15T05:35:56;100647.00;;;-5.62;100.00
9421;BME280;4749;51.398;5.466;2022-12-15T05:38:24;100647.69;;;-5.65;100.00
9421;BME280;4749;51.398;5.466;2022-12-15T05:40:51;100657.84;;;-5.67;100.00
9421;BME280;4749;51.398;5.466;2022-12-15T05:43:18;100656.16;;;-5.66;100.00
9421;BME280;4749;51.398;5.466;2022-12-15T05:45:53;100649.97;;;-5.70;100.00
9421;BME280;4749;51.398;5.466;2022-12-15T05:48:20;100656.66;;;-5.72;100.00
9421;BME280;4749;51.398;5.466;2022-12-15T05:50:47;100647.19;;;-5.73;100.00
9421;BME280;4749;51.398;5.466;2022-12-15T05:53:15;100653.97;;;-5.73;100.00
9421;BME280;4749;51.398;5.466;2022-12-15T05:55:42;100655.56;;;-5.75;100.00
9421;BME280;4749;51.398;5.466;2022-12-15T05:58:09;100656.44;;;-5.75;100.00
9421;BME280;4749;51.398;5.466;2022-12-15T06:00:37;100655.56;;;-5.75;100.00
9421;BME280;4749;51.398;5.466;2022-12-15T06:03:04;100651.25;;;-5.76;100.00
9421;BME280;4749;51.398;5.466;2022-12-15T06:05:31;100644.44;;;-5.76;100.00
9421;BME280;4749;51.398;5.466;2022-12-15T06:07:59;100646.22;;;-5.75;100.00
9421;BME280;4749;51.398;5.466;2022-12-15T06:10:26;100654.69;;;-5.76;100.00
9421;BME280;4749;51.398;5.466;2022-12-15T06:12:53;100657.94;;;-5.78;100.00
9421;BME280;4749;51.398;5.466;2022-12-15T06:15:20;100648.59;;;-5.78;100.00
9421;BME280;4749;51.398;5.466;2022-12-15T06:17:48;100655.38;;;-5.78;100.00
9421;BME280;4749;51.398;5.466;2022-12-15T06:20:15;100662.97;;;-5.80;100.00
9421;BME280;4749;51.398;5.466;2022-12-15T06:22:42;100665.31;;;-5.83;100.00
9421;BME280;4749;51.398;5.466;2022-12-15T06:25:16;100673.69;;;-5.85;100.00
9421;BME280;4749;51.398;5.466;2022-12-15T06:27:43;100671.03;;;-5.87;100.00
9421;BME280;4749;51.398;5.466;2022-12-15T06:30:11;100684.63;;;-5.88;100.00
9421;BME280;4749;51.398;5.466;2022-12-15T06:32:38;100682.97;;;-5.87;100.00
9421;BME280;4749;51.398;5.466;2022-12-15T06:35:06;100670.16;;;-5.87;100.00
9421;BME280;4749;51.398;5.466;2022-12-15T06:37:33;100669.38;;;-5.86;100.00
9421;BME280;4749;51.398;5.466;2022-12-15T06:40:00;100670.16;;;-5.87;100.00
9421;BME280;4749;51.398;5.466;2022-12-15T06:42:27;100668.47;;;-5.87;100.00
9421;BME280;4749;51.398;5.466;2022-12-15T06:44:55;100668.38;;;-5.88;100.00
9421;BME280;4749;51.398;5.466;2022-12-15T06:47:22;100667.59;;;-5.87;100.00
9421;BME280;4749;51.398;5.466;2022-12-15T06:49:49;100670.94;;;-5.88;100.00
9421;BME280;4749;51.398;5.466;2022-12-15T06:52:16;100672.72;;;-5.87;100.00
9421;BME280;4749;51.398;5.466;2022-12-15T06:54:43;100676.94;;;-5.88;100.00
9421;BME280;4749;51.398;5.466;2022-12-15T06:57:11;100686.41;;;-5.87;100.00
9421;BME280;4749;51.398;5.466;2022-12-15T06:59:38;100688.97;;;-5.87;100.00
9421;BME280;4749;51.398;5.466;2022-12-15T07:02:17;100681.28;;;-5.87;100.00
9421;BME280;4749;51.398;5.466;2022-12-15T07:04:52;100684.72;;;-5.86;100.00
9421;BME280;4749;51.398;5.466;2022-12-15T07:07:20;100687.19;;;-5.88;100.00
9421;BME280;4749;51.398;5.466;2022-12-15T07:09:47;100688.06;;;-5.87;100.00
9421;BME280;4749;51.398;5.466;2022-12-15T07:12:14;100684.50;;;-5.89;100.00
9421;BME280;4749;51.398;5.466;2022-12-15T07:14:41;100687.94;;;-5.89;100.00
9421;BME280;4749;51.398;5.466;2022-12-15T07:17:09;100681.19;;;-5.88;100.00
9421;BME280;4749;51.398;5.466;2022-12-15T07:19:37;100685.50;;;-5.87;100.00
9421;BME280;4749;51.398;5.466;2022-12-15T07:22:04;100694.09;;;-5.87;100.00
9421;BME280;4749;51.398;5.466;2022-12-15T07:24:31;100694.97;;;-5.86;100.00
9421;BME280;4749;51.398;5.466;2022-12-15T07:26:58;100695.06;;;-5.85;100.00
9421;BME280;4749;51.398;5.466;2022-12-15T07:29:25;100694.09;;;-5.87;100.00
9421;BME280;4749;51.398;5.466;2022-12-15T07:31:52;100695.84;;;-5.86;100.00
9421;BME280;4749;51.398;5.466;2022-12-15T07:34:19;100696.81;;;-5.84;100.00
9421;BME280;4749;51.398;5.466;2022-12-15T07:36:46;100696.81;;;-5.84;100.00
9421;BME280;4749;51.398;5.466;2022-12-15T07:39:18;100692.59;;;-5.83;100.00
9421;BME280;4749;51.398;5.466;2022-12-15T07:41:45;100697.00;;;-5.81;100.00
9421;BME280;4749;51.398;5.466;2022-12-15T07:44:12;100700.59;;;-5.79;100.00
9421;BME280;4749;51.398;5.466;2022-12-15T07:46:40;100711.72;;;-5.78;100.00
9421;BME280;4749;51.398;5.466;2022-12-15T07:49:12;100715.25;;;-5.76;100.00
9421;BME280;4749;51.398;5.466;2022-12-15T07:51:40;100716.13;;;-5.76;100.00
9421;BME280;4749;51.398;5.466;2022-12-15T07:54:11;100716.22;;;-5.74;100.00
9421;BME280;4749;51.398;5.466;2022-12-15T07:56:39;100716.47;;;-5.71;100.00
9421;BME280;4749;51.398;5.466;2022-12-15T07:59:07;100719.13;;;-5.70;100.00
9421;BME280;4749;51.398;5.466;2022-12-15T08:01:34;100714.97;;;-5.68;100.00
9421;BME280;4749;51.398;5.466;2022-12-15T08:04:02;100713.38;;;-5.66;100.00
9421;BME280;4749;51.398;5.466;2022-12-15T08:06:29;100713.59;;;-5.62;100.00
9421;BME280;4749;51.398;5.466;2022-12-15T08:08:57;100709.47;;;-5.60;100.00
9421;BME280;4749;51.398;5.466;2022-12-15T08:11:24;100711.41;;;-5.56;100.00
9421;BME280;4749;51.398;5.466;2022-12-15T08:13:51;100724.44;;;-5.53;100.00
9421;BME280;4749;51.398;5.466;2022-12-15T08:16:29;100723.03;;;-5.48;100.00
9421;BME280;4749;51.398;5.466;2022-12-15T08:18:57;100720.69;;;-5.45;100.00
9421;BME280;4749;51.398;5.466;2022-12-15T08:21:24;100723.63;;;-5.39;100.00
9421;BME280;4749;51.398;5.466;2022-12-15T08:23:51;100721.38;;;-5.34;100.00
9421;BME280;4749;51.398;5.466;2022-12-15T08:26:19;100721.66;;;-5.30;100.00
9421;BME280;4749;51.398;5.466;2022-12-15T08:28:55;100721.16;;;-5.24;100.00
9421;BME280;4749;51.398;5.466;2022-12-15T08:31:43;100719.81;;;-5.19;100.00
9421;BME280;4749;51.398;5.466;2022-12-15T08:34:10;100715.03;;;-5.13;100.00
9421;BME280;4749;51.398;5.466;2022-12-15T08:36:37;100721.34;;;-5.08;100.00
9421;BME280;4749;51.398;5.466;2022-12-15T08:39:05;100722.53;;;-5.03;100.00
9421;BME280;4749;51.398;5.466;2022-12-15T08:41:32;100734.84;;;-4.97;100.00
9421;BME280;4749;51.398;5.466;2022-12-15T08:44:00;100734.34;;;-4.92;100.00
9421;BME280;4749;51.398;5.466;2022-12-15T08:46:32;100728.00;;;-4.84;100.00
9421;BME280;4749;51.398;5.466;2022-12-15T08:49:01;100732.66;;;-4.78;100.00
9421;BME280;4749;51.398;5.466;2022-12-15T08:51:32;100739.00;;;-4.71;100.00
9421;BME280;4749;51.398;5.466;2022-12-15T08:54:04;100741.97;;;-4.65;100.00
9421;BME280;4749;51.398;5.466;2022-12-15T08:56:34;100739.88;;;-4.58;100.00
9421;BME280;4749;51.398;5.466;2022-12-15T08:59:03;100747.25;;;-4.49;100.00
9421;BME280;4749;51.398;5.466;2022-12-15T09:01:31;100749.41;;;-4.42;100.00
9421;BME280;4749;51.398;5.466;2022-12-15T09:03:59;100760.13;;;-4.34;100.00
9421;BME280;4749;51.398;5.466;2022-12-15T09:06:33;100762.19;;;-4.29;100.00
9421;BME280;4749;51.398;5.466;2022-12-15T09:09:06;100775.28;;;-4.24;100.00
9421;BME280;4749;51.398;5.466;2022-12-15T09:11:34;100774.78;;;-4.18;100.00
9421;BME280;4749;51.398;5.466;2022-12-15T09:14:05;100784.50;;;-4.13;100.00
9421;BME280;4749;51.398;5.466;2022-12-15T09:16:33;100786.56;;;-4.07;100.00
9421;BME280;4749;51.398;5.466;2022-12-15T09:19:01;100791.38;;;-3.99;100.00
9421;BME280;4749;51.398;5.466;2022-12-15T09:21:29;100783.31;;;-3.90;100.00
9421;BME280;4749;51.398;5.466;2022-12-15T09:23:59;100773.13;;;-3.88;100.00
9421;BME280;4749;51.398;5.466;2022-12-15T09:26:33;100778.81;;;-3.79;100.00
9421;BME280;4749;51.398;5.466;2022-12-15T09:29:01;100781.03;;;-3.71;100.00
9421;BME280;4749;51.398;5.466;2022-12-15T09:31:32;100791.75;;;-3.63;100.00
9421;BME280;4749;51.398;5.466;2022-12-15T09:34:01;100796.38;;;-3.57;100.00
9421;BME280;4749;51.398;5.466;2022-12-15T09:36:30;100791.31;;;-3.56;100.00
9421;BME280;4749;51.398;5.466;2022-12-15T09:38:59;100790.00;;;-3.49;100.00
9421;BME280;4749;51.398;5.466;2022-12-15T09:41:31;100793.97;;;-3.40;100.00
9421;BME280;4749;51.398;5.466;2022-12-15T09:50:04;100809.50;;;-3.23;100.00
9421;BME280;4749;51.398;5.466;2022-12-15T09:52:52;100807.34;;;-3.16;100.00
9421;BME280;4749;51.398;5.466;2022-12-15T09:55:25;100806.81;;;-3.10;100.00
9421;BME280;4749;51.398;5.466;2022-12-15T10:00:56;100804.03;;;-2.98;100.00
9421;BME280;4749;51.398;5.466;2022-12-15T10:03:33;100805.19;;;-2.93;100.00
9421;BME280;4749;51.398;5.466;2022-12-15T10:06:39;100807.13;;;-2.89;100.00
9421;BME280;4749;51.398;5.466;2022-12-15T10:09:24;100807.28;;;-2.86;100.00
9421;BME280;4749;51.398;5.466;2022-12-15T10:15:04;100800.81;;;-2.79;100.00
9421;BME280;4749;51.398;5.466;2022-12-15T10:18:05;100804.44;;;-2.76;100.00
9421;BME280;4749;51.398;5.466;2022-12-15T10:20:38;100801.31;;;-2.70;100.00
9421;BME280;4749;51.398;5.466;2022-12-15T10:23:17;100805.03;;;-2.65;100.00
9421;BME280;4749;51.398;5.466;2022-12-15T10:26:24;100806.94;;;-2.61;100.00
9421;BME280;4749;51.398;5.466;2022-12-15T10:29:35;100819.28;;;-2.56;100.00
9421;BME280;4749;51.398;5.466;2022-12-15T10:33:10;100809.25;;;-2.51;100.00
9421;BME280;4749;51.398;5.466;2022-12-15T10:35:45;100811.44;;;-2.42;100.00
9421;BME280;4749;51.398;5.466;2022-12-15T10:41:02;100806.94;;;-2.30;100.00
9421;BME280;4749;51.398;5.466;2022-12-15T10:43:46;100811.75;;;-2.20;100.00
9421;BME280;4749;51.398;5.466;2022-12-15T10:49:23;100824.72;;;-2.02;100.00
9421;BME280;4749;51.398;5.466;2022-12-15T10:51:57;100822.47;;;-1.96;100.00
9421;BME280;4749;51.398;5.466;2022-12-15T10:54:43;100817.66;;;-1.90;100.00
9421;BME280;4749;51.398;5.466;2022-12-15T10:57:31;100814.41;;;-1.86;100.00
9421;BME280;4749;51.398;5.466;2022-12-15T11:00:29;100805.25;;;-1.81;100.00
9421;BME280;4749;51.398;5.466;2022-12-15T11:02:57;100811.34;;;-1.79;100.00
9421;BME280;4749;51.398;5.466;2022-12-15T11:05:26;100810.72;;;-1.75;100.00
9421;BME280;4749;51.398;5.466;2022-12-15T11:08:11;100806.78;;;-1.68;100.00
9421;BME280;4749;51.398;5.466;2022-12-15T11:10:51;100803.78;;;-1.59;100.00
9421;BME280;4749;51.398;5.466;2022-12-15T11:13:38;100802.34;;;-1.53;100.00
9421;BME280;4749;51.398;5.466;2022-12-15T11:16:17;100808.72;;;-1.46;100.00
9421;BME280;4749;51.398;5.466;2022-12-15T11:18:51;100817.59;;;-1.41;100.00
9421;BME280;4749;51.398;5.466;2022-12-15T11:21:30;100813.63;;;-1.34;100.00
9421;BME280;4749;51.398;5.466;2022-12-15T11:24:39;100808.69;;;-1.30;100.00
9421;BME280;4749;51.398;5.466;2022-12-15T11:27:35;100811.56;;;-1.24;100.00
9421;BME280;4749;51.398;5.466;2022-12-15T11:30:21;100806.72;;;-1.18;100.00
9421;BME280;4749;51.398;5.466;2022-12-15T11:33:07;100806.03;;;-1.14;100.00
9421;BME280;4749;51.398;5.466;2022-12-15T11:48:04;100782.31;;;-0.89;100.00
9421;BME280;4749;51.398;5.466;2022-12-15T12:05:35;100779.19;;;-0.64;100.00
9421;BME280;4749;51.398;5.466;2022-12-15T12:08:26;100775.91;;;-0.60;100.00
9421;BME280;4749;51.398;5.466;2022-12-15T12:11:26;100783.00;;;-0.55;100.00
9421;BME280;4749;51.398;5.466;2022-12-15T12:14:47;100778.84;;;-0.52;100.00
9421;BME280;4749;51.398;5.466;2022-12-15T12:17:45;100778.19;;;-0.48;100.00
9421;BME280;4749;51.398;5.466;2022-12-15T12:20:45;100773.22;;;-0.43;100.00
9421;BME280;4749;51.398;5.466;2022-12-15T12:23:23;100770.03;;;-0.38;100.00
9421;BME280;4749;51.398;5.466;2022-12-15T12:26:04;100771.03;;;-0.34;100.00
9421;BME280;4749;51.398;5.466;2022-12-15T12:28:48;100777.31;;;-0.29;100.00
9421;BME280;4749;51.398;5.466;2022-12-15T12:39:49;100757.22;;;-0.17;100.00
9421;BME280;4749;51.398;5.466;2022-12-15T12:42:54;100764.38;;;-0.10;100.00
9421;BME280;4749;51.398;5.466;2022-12-15T12:45:41;100754.28;;;-0.05;100.00
9421;BME280;4749;51.398;5.466;2022-12-15T12:51:38;100743.31;;;0.01;100.00
9421;BME280;4749;51.398;5.466;2022-12-15T13:00:24;100742.75;;;0.08;100.00
9421;BME280;4749;51.398;5.466;2022-12-15T13:05:35;100734.25;;;0.10;100.00
9421;BME280;4749;51.398;5.466;2022-12-15T13:10:46;100724.03;;;0.13;100.00
9421;BME280;4749;51.398;5.466;2022-12-15T13:16:16;100714.53;;;0.12;100.00
9421;BME280;4749;51.398;5.466;2022-12-15T13:19:06;100717.72;;;0.07;100.00
9421;BME280;4749;51.398;5.466;2022-12-15T13:24:35;100714.25;;;0.06;100.00
9421;BME280;4749;51.398;5.466;2022-12-15T13:29:59;100716.41;;;0.16;100.00
9421;BME280;4749;51.398;5.466;2022-12-15T13:32:41;100708.78;;;0.19;100.00
9421;BME280;4749;51.398;5.466;2022-12-15T13:37:52;100703.63;;;0.19;100.00
9421;BME280;4749;51.398;5.466;2022-12-15T13:49:03;100703.25;;;0.31;100.00
9421;BME280;4749;51.398;5.466;2022-12-15T13:51:43;100695.53;;;0.33;100.00
9421;BME280;4749;51.398;5.466;2022-12-15T13:54:23;100687.88;;;0.34;100.00
9421;BME280;4749;51.398;5.466;2022-12-15T13:57:01;100692.94;;;0.33;100.00
9421;BME280;4749;51.398;5.466;2022-12-15T13:59:47;100687.66;;;0.30;100.00
9421;BME280;4749;51.398;5.466;2022-12-15T14:02:32;100688.44;;;0.27;100.00
9421;BME280;4749;51.398;5.466;2022-12-15T14:05:18;100690.00;;;0.23;100.00
9421;BME280;4749;51.398;5.466;2022-12-15T14:10:59;100679.03;;;0.29;100.00
9421;BME280;4749;51.398;5.466;2022-12-15T14:13:47;100676.56;;;0.32;100.00
9421;BME280;4749;51.398;5.466;2022-12-15T14:16:21;100677.75;;;0.40;100.00
9421;BME280;4749;51.398;5.466;2022-12-15T14:21:34;100671.97;;;0.46;100.00
9421;BME280;4749;51.398;5.466;2022-12-15T14:24:01;100671.91;;;0.44;100.00
9421;BME280;4749;51.398;5.466;2022-12-15T14:26:48;100675.94;;;0.38;100.00
9421;BME280;4749;51.398;5.466;2022-12-15T14:29:16;100672.22;;;0.31;100.00
9421;BME280;4749;51.398;5.466;2022-12-15T14:31:53;100677.13;;;0.25;100.00
9421;BME280;4749;51.398;5.466;2022-12-15T14:34:39;100676.88;;;0.19;100.00
9421;BME280;4749;51.398;5.466;2022-12-15T14:37:18;100670.63;;;0.14;100.00
9421;BME280;4749;51.398;5.466;2022-12-15T14:39:47;100660.03;;;0.08;100.00
9421;BME280;4749;51.398;5.466;2022-12-15T14:42:27;100658.16;;;0.04;100.00
9421;BME280;4749;51.398;5.466;2022-12-15T14:44:55;100662.31;;;0.00;100.00
9421;BME280;4749;51.398;5.466;2022-12-15T14:47:34;100664.75;;;-0.03;100.00
9421;BME280;4749;51.398;5.466;2022-12-15T14:50:03;100671.56;;;-0.05;100.00
9421;BME280;4749;51.398;5.466;2022-12-15T14:52:41;100655.84;;;-0.10;100.00
9421;BME280;4749;51.398;5.466;2022-12-15T14:57:58;100658.19;;;-0.16;100.00
9421;BME280;4749;51.398;5.466;2022-12-15T15:00:46;100655.34;;;-0.22;100.00
9421;BME280;4749;51.398;5.466;2022-12-15T15:03:17;100656.00;;;-0.26;100.00
9421;BME280;4749;51.398;5.466;2022-12-15T15:05:59;100653.13;;;-0.34;100.00
9421;BME280;4749;51.398;5.466;2022-12-15T15:08:41;100653.69;;;-0.41;100.00
9421;BME280;4749;51.398;5.466;2022-12-15T15:11:36;100655.09;;;-0.47;100.00
9421;BME280;4749;51.398;5.466;2022-12-15T15:14:14;100655.66;;;-0.54;100.00
9421;BME280;4749;51.398;5.466;2022-12-15T15:16:43;100644.91;;;-0.64;100.00
9421;BME280;4749;51.398;5.466;2022-12-15T15:19:19;100649.72;;;-0.71;100.00
9421;BME280;4749;51.398;5.466;2022-12-15T15:21:48;100652.91;;;-0.77;100.00
9421;BME280;4749;51.398;5.466;2022-12-15T15:26:42;100651.50;;;-0.90;100.00
9421;BME280;4749;51.398;5.466;2022-12-15T15:29:39;100651.25;;;-0.94;100.00
9421;BME280;4749;51.398;5.466;2022-12-15T15:32:20;100647.44;;;-1.02;100.00
9421;BME280;4749;51.398;5.466;2022-12-15T15:34:48;100649.84;;;-1.07;100.00
9421;BME280;4749;51.398;5.466;2022-12-15T15:37:23;100652.13;;;-1.13;100.00
9421;BME280;4749;51.398;5.466;2022-12-15T15:39:53;100648.38;;;-1.20;100.00
9421;BME280;4749;51.398;5.466;2022-12-15T15:42:21;100655.91;;;-1.24;100.00
9421;BME280;4749;51.398;5.466;2022-12-15T15:44:56;100647.00;;;-1.31;100.00
9421;BME280;4749;51.398;5.466;2022-12-15T15:47:24;100649.50;;;-1.32;100.00
9421;BME280;4749;51.398;5.466;2022-12-15T15:50:00;100653.78;;;-1.33;100.00
9421;BME280;4749;51.398;5.466;2022-12-15T15:52:30;100652.81;;;-1.35;100.00